createdAt,value
2018-09-04T00:00:42.752Z,71.45
2018-09-04T00:03:10.772Z,72.39
2018-09-04T00:05:38.784Z,72.50
2018-09-04T00:08:07.580Z,72.57
2018-09-04T00:10:35.586Z,71.77
2018-09-04T00:13:03.604Z,71.77
2018-09-04T00:15:31.621Z,72.91
2018-09-04T00:17:59.744Z,72.70
2018-09-04T00:20:27.761Z,72.90
2018-09-04T00:22:55.760Z,72.73
2018-09-04T00:25:23.796Z,72.75
2018-09-04T00:27:51.794Z,72.71
2018-09-04T00:30:19.816Z,72.85
2018-09-04T00:32:47.844Z,72.40
2018-09-04T00:35:15.865Z,72.61
2018-09-04T00:37:43.862Z,72.58
2018-09-04T00:40:11.909Z,72.27
2018-09-04T00:42:39.912Z,71.63
2018-09-04T00:45:07.925Z,72.42
2018-09-04T00:47:35.938Z,73.42
2018-09-04T00:50:03.994Z,72.82
2018-09-04T00:52:32.023Z,73.92
2018-09-04T00:55:00.103Z,73.26
2018-09-04T00:57:28.096Z,74.21
2018-09-04T00:59:56.085Z,74.44
2018-09-04T01:02:24.155Z,74.47
2018-09-04T01:04:52.183Z,75.13
2018-09-04T01:07:20.228Z,74.29
2018-09-04T01:09:48.238Z,75.45
2018-09-04T01:12:16.236Z,75.14
2018-09-04T01:14:44.264Z,76.09
2018-09-04T01:17:12.308Z,75.97
2018-09-04T01:19:40.372Z,75.74
2018-09-04T01:22:08.409Z,76.26
2018-09-04T01:24:36.408Z,76.69
2018-09-04T01:27:04.453Z,77.51
2018-09-04T01:29:32.440Z,77.27
2018-09-04T01:32:00.457Z,77.28
2018-09-04T01:34:28.481Z,78.25
2018-09-04T01:36:56.480Z,78.56
2018-09-04T01:39:24.473Z,78.51
2018-09-04T01:41:52.493Z,78.63
2018-09-04T01:44:20.517Z,78.49
2018-09-04T01:46:48.525Z,78.38
2018-09-04T01:49:16.554Z,78.82
2018-09-04T01:51:44.563Z,78.36
2018-09-04T01:54:12.553Z,78.72
2018-09-04T01:56:40.564Z,78.88
2018-09-04T01:59:08.561Z,77.64
2018-09-04T02:01:36.776Z,78.34
2018-09-04T02:04:04.794Z,78.71
2018-09-04T02:06:32.805Z,78.83
2018-09-04T02:09:00.801Z,79.08
2018-09-04T02:11:28.821Z,79.44
2018-09-04T02:13:56.809Z,78.95
2018-09-04T02:16:24.792Z,79.81
2018-09-04T02:18:52.951Z,79.09
2018-09-04T02:21:20.961Z,79.91
2018-09-04T02:23:48.956Z,79.78
2018-09-04T02:26:16.956Z,80.13
2018-09-04T02:28:44.973Z,81.21
2018-09-04T02:31:12.980Z,80.85
2018-09-04T02:33:41.094Z,80.67
2018-09-04T02:36:09.104Z,81.69
2018-09-04T02:38:37.221Z,80.69
2018-09-04T02:41:05.921Z,80.78
2018-09-04T02:43:33.922Z,80.88
2018-09-04T02:46:01.981Z,80.77
2018-09-04T02:48:30.052Z,79.75
2018-09-04T02:50:58.060Z,79.94
2018-09-04T02:53:26.072Z,78.94
2018-09-04T02:55:54.090Z,80.38
2018-09-04T02:58:22.096Z,79.61
2018-09-04T03:00:50.120Z,80.00
2018-09-04T03:03:18.135Z,80.85
2018-09-04T03:05:46.150Z,80.54
2018-09-04T03:08:14.174Z,80.99
2018-09-04T03:10:42.249Z,80.96
2018-09-04T03:13:10.321Z,80.92
2018-09-04T03:15:38.385Z,80.33
2018-09-04T03:18:06.416Z,80.27
2018-09-04T03:20:34.432Z,79.05
2018-09-04T03:23:02.460Z,79.73
2018-09-04T03:25:30.457Z,80.80
2018-09-04T03:27:58.489Z,81.82
2018-09-04T03:30:26.469Z,82.24
2018-09-04T03:32:54.469Z,82.61
2018-09-04T03:35:22.495Z,82.31
2018-09-04T03:37:50.522Z,83.09
2018-09-04T03:40:18.539Z,82.61
2018-09-04T03:42:46.593Z,83.45
2018-09-04T03:45:14.696Z,84.08
2018-09-04T03:47:42.747Z,83.14
2018-09-04T03:50:10.872Z,84.63
2018-09-04T03:52:38.864Z,83.96
2018-09-04T03:55:06.990Z,84.98
2018-09-04T03:57:34.977Z,85.46
2018-09-04T04:00:03.029Z,84.40
2018-09-04T04:02:31.040Z,84.58
2018-09-04T04:04:59.117Z,85.84
2018-09-04T04:07:27.209Z,85.58
2018-09-04T04:09:55.368Z,85.84
2018-09-04T04:12:23.409Z,85.89
2018-09-04T04:14:51.477Z,85.62
2018-09-04T04:17:19.515Z,86.23
2018-09-04T04:19:47.556Z,86.87
2018-09-04T04:22:15.585Z,85.71
2018-09-04T04:24:44.651Z,86.56
2018-09-04T04:27:12.661Z,86.10
2018-09-04T04:29:40.702Z,86.91
2018-09-04T04:32:08.708Z,86.59
2018-09-04T04:34:36.714Z,87.96
2018-09-04T04:37:04.779Z,87.01
2018-09-04T04:39:32.857Z,87.38
2018-09-04T04:42:00.889Z,85.96
2018-09-04T04:44:28.907Z,86.39
2018-09-04T04:49:28.429Z,86.26
2018-09-04T04:51:56.436Z,86.16
2018-09-04T04:54:24.500Z,86.45
2018-09-04T04:56:52.647Z,87.08
2018-09-04T04:59:20.673Z,86.80
2018-09-04T05:01:48.705Z,87.55
2018-09-04T05:04:16.740Z,87.33
2018-09-04T05:06:44.748Z,87.09
2018-09-04T05:09:12.836Z,88.29
2018-09-04T05:11:40.935Z,88.57
2018-09-04T05:14:08.945Z,88.60
2018-09-04T05:16:36.982Z,88.90
2018-09-04T05:19:05.157Z,89.69
2018-09-04T05:21:33.180Z,89.07
2018-09-04T05:24:01.187Z,89.14
2018-09-04T05:26:29.212Z,88.92
2018-09-04T05:28:57.212Z,89.82
2018-09-04T05:31:25.554Z,90.53
2018-09-04T05:33:53.564Z,89.66
2018-09-04T05:36:21.591Z,90.27
2018-09-04T05:38:49.593Z,91.37
2018-09-04T05:41:17.633Z,91.95
2018-09-04T05:43:50.288Z,91.08
2018-09-04T05:46:24.813Z,92.46
2018-09-04T05:48:53.381Z,91.90
2018-09-04T05:51:21.412Z,91.23
2018-09-04T05:53:49.451Z,91.36
2018-09-04T05:56:17.473Z,90.91
2018-09-04T05:58:45.460Z,90.38
2018-09-04T06:01:13.477Z,90.87
2018-09-04T06:03:41.505Z,90.36
2018-09-04T06:06:09.524Z,89.85
2018-09-04T06:08:37.524Z,89.90
2018-09-04T06:11:05.534Z,90.48
2018-09-04T06:13:33.589Z,90.20
2018-09-04T06:16:01.545Z,89.94
2018-09-04T06:18:29.548Z,90.01
2018-09-04T06:20:57.605Z,89.14
2018-09-04T06:23:25.618Z,89.19
2018-09-04T06:25:53.637Z,90.02
2018-09-04T06:28:21.662Z,90.13
2018-09-04T06:30:49.682Z,89.64
2018-09-04T06:33:17.766Z,90.28
2018-09-04T06:35:45.701Z,89.65
2018-09-04T06:38:13.721Z,89.22
2018-09-04T06:40:41.741Z,89.11
2018-09-04T06:43:09.836Z,89.00
2018-09-04T06:45:37.857Z,90.04
2018-09-04T06:48:05.871Z,90.36
2018-09-04T06:50:33.965Z,90.12
2018-09-04T06:53:02.006Z,88.64
2018-09-04T06:55:30.041Z,88.57
2018-09-04T06:57:58.159Z,87.83
2018-09-04T07:00:26.246Z,88.83
2018-09-04T07:02:54.341Z,88.41
2018-09-04T07:05:22.379Z,87.84
2018-09-04T07:07:50.410Z,88.42
2018-09-04T07:10:18.433Z,88.25
2018-09-04T07:12:46.434Z,86.48
2018-09-04T07:15:14.445Z,86.89
2018-09-04T07:17:42.522Z,87.06
2018-09-04T07:20:10.516Z,87.01
2018-09-04T07:22:38.560Z,85.57
2018-09-04T07:25:07.216Z,85.79
2018-09-04T07:27:35.218Z,83.97
2018-09-04T07:30:03.252Z,83.85
2018-09-04T07:32:31.276Z,82.43
2018-09-04T07:34:59.285Z,82.45
2018-09-04T07:37:27.341Z,82.81
2018-09-04T07:39:55.338Z,82.59
2018-09-04T07:42:23.373Z,82.93
2018-09-04T07:44:51.441Z,82.68
2018-09-04T07:47:19.453Z,82.38
2018-09-04T07:49:47.466Z,80.91
2018-09-04T07:52:15.495Z,81.09
2018-09-04T07:54:43.510Z,80.31
2018-09-04T07:57:11.678Z,79.70
2018-09-04T07:59:39.689Z,79.79
2018-09-04T08:02:07.932Z,78.04
2018-09-04T08:04:35.929Z,77.75
2018-09-04T08:07:04.180Z,77.63
2018-09-04T08:09:32.226Z,76.23
2018-09-04T08:12:00.226Z,74.77
2018-09-04T08:14:28.680Z,73.41
2018-09-04T08:17:03.432Z,72.52
2018-09-04T08:19:31.449Z,72.07
2018-09-04T08:21:59.454Z,72.12
2018-09-04T08:24:27.528Z,70.83
2018-09-04T08:26:55.546Z,70.30
2018-09-04T08:29:23.575Z,68.50
2018-09-04T08:31:51.581Z,63.08
2018-09-04T08:34:19.621Z,59.26
2018-09-04T08:36:47.629Z,59.44
2018-09-04T08:39:15.670Z,57.27
2018-09-04T08:41:43.697Z,56.77
2018-09-04T08:44:11.703Z,55.31
2018-09-04T08:46:39.697Z,52.17
2018-09-04T08:49:07.700Z,51.78
2018-09-04T08:51:35.693Z,48.75
2018-09-04T08:54:03.740Z,47.82
2018-09-04T08:56:31.752Z,46.91
2018-09-04T08:58:59.787Z,45.68
2018-09-04T09:01:27.820Z,45.67
2018-09-04T09:03:55.809Z,46.20
2018-09-04T09:06:23.809Z,43.67
2018-09-04T09:08:51.840Z,44.53
2018-09-04T09:11:19.846Z,44.21
2018-09-04T09:13:47.866Z,45.28
2018-09-04T09:16:15.873Z,46.56
2018-09-04T09:18:43.878Z,45.36
2018-09-04T09:21:11.985Z,45.82
2018-09-04T09:23:40.013Z,47.67
2018-09-04T09:26:08.026Z,46.37
2018-09-04T09:28:36.028Z,45.34
2018-09-04T09:31:04.017Z,46.29
2018-09-04T09:33:32.027Z,48.69
2018-09-04T09:36:00.106Z,49.75
2018-09-04T09:38:28.097Z,49.98
2018-09-04T09:40:56.092Z,50.12
2018-09-04T09:43:24.178Z,49.89
2018-09-04T09:45:52.189Z,50.90
2018-09-04T09:48:20.188Z,51.00
2018-09-04T09:50:48.198Z,50.80
2018-09-04T09:53:16.462Z,50.17
2018-09-04T09:55:44.228Z,50.60
2018-09-04T09:58:12.262Z,51.02
2018-09-04T10:00:45.648Z,51.32
2018-09-04T10:04:21.821Z,50.80
2018-09-04T10:06:49.872Z,50.73
2018-09-04T10:09:17.949Z,49.81
2018-09-04T10:11:45.956Z,50.10
2018-09-04T10:14:13.992Z,50.23
2018-09-04T10:16:42.028Z,51.35
2018-09-04T10:19:10.093Z,51.47
2018-09-04T10:21:38.192Z,51.53
2018-09-04T10:24:06.381Z,51.59
2018-09-04T10:26:34.653Z,51.58
2018-09-04T10:29:02.549Z,50.50
2018-09-04T10:31:30.736Z,49.46
2018-09-04T10:33:59.000Z,50.34
2018-09-04T10:36:27.206Z,51.45
2018-09-04T10:39:00.604Z,50.29
2018-09-04T10:41:28.844Z,50.59
2018-09-04T10:43:57.804Z,52.93
2018-09-04T10:46:26.460Z,49.94
2018-09-04T10:48:54.670Z,50.28
2018-09-04T10:51:22.660Z,50.85
2018-09-04T10:53:50.769Z,52.09
2018-09-04T10:56:18.790Z,48.45
2018-09-04T10:58:46.781Z,48.09
2018-09-04T11:01:14.768Z,48.41
2018-09-04T11:03:42.959Z,48.49
2018-09-04T11:06:10.976Z,48.95
2018-09-04T11:08:38.992Z,49.05
2018-09-04T11:11:07.010Z,50.13
2018-09-04T11:13:35.005Z,49.50
2018-09-04T11:16:03.025Z,49.47
2018-09-04T11:18:31.028Z,48.30
2018-09-04T11:20:59.056Z,47.65
2018-09-04T11:23:27.098Z,47.31
2018-09-04T11:25:55.097Z,48.85
2018-09-04T11:28:23.103Z,49.07
2018-09-04T11:30:51.128Z,50.76
2018-09-04T11:33:19.141Z,49.92
2018-09-04T11:35:47.148Z,51.47
2018-09-04T11:38:15.151Z,49.05
2018-09-04T11:40:43.210Z,49.77
2018-09-04T11:43:11.200Z,50.10
2018-09-04T11:45:39.228Z,48.57
2018-09-04T11:48:07.267Z,50.42
2018-09-04T11:50:35.281Z,48.48
2018-09-04T11:53:03.288Z,48.74
2018-09-04T11:55:31.350Z,48.75
2018-09-04T11:57:59.368Z,47.90
2018-09-04T12:00:34.173Z,47.71
2018-09-04T12:03:02.382Z,48.18
2018-09-04T12:05:30.659Z,46.55
2018-09-04T12:07:58.736Z,46.44
2018-09-04T12:10:26.765Z,46.03
2018-09-04T12:12:54.979Z,45.85
2018-09-04T12:15:23.021Z,47.16
2018-09-04T12:17:51.013Z,47.78
2018-09-04T12:20:28.833Z,48.27
2018-09-04T12:22:56.924Z,46.90
2018-09-04T12:25:25.646Z,48.13
2018-09-04T12:27:53.730Z,47.15
2018-09-04T12:30:21.768Z,46.21
2018-09-04T12:32:49.813Z,45.37
2018-09-04T12:35:17.841Z,44.62
2018-09-04T12:37:45.924Z,44.81
2018-09-04T12:40:13.952Z,44.67
2018-09-04T12:42:41.990Z,44.72
2018-09-04T12:45:10.060Z,46.27
2018-09-04T12:47:38.072Z,46.71
2018-09-04T12:50:06.174Z,44.88
2018-09-04T12:52:34.231Z,46.50
2018-09-04T12:55:02.227Z,46.47
2018-09-04T12:57:30.297Z,47.34
2018-09-04T12:59:58.302Z,46.04
2018-09-04T13:02:26.336Z,46.66
2018-09-04T13:04:54.404Z,46.98
2018-09-04T13:07:22.482Z,48.33
2018-09-04T13:09:50.492Z,45.58
2018-09-04T13:12:18.509Z,44.15
2018-09-04T13:14:46.531Z,43.36
2018-09-04T13:17:14.619Z,43.21
2018-09-04T13:19:42.640Z,42.89
2018-09-04T13:22:10.682Z,43.29
2018-09-04T13:24:38.691Z,44.06
2018-09-04T13:27:06.812Z,42.85
2018-09-04T13:29:34.886Z,42.07
2018-09-04T13:32:02.929Z,41.30
2018-09-04T13:34:31.094Z,40.83
2018-09-04T13:36:59.062Z,39.90
2018-09-04T13:39:27.064Z,41.33
2018-09-04T13:41:55.201Z,42.79
2018-09-04T13:44:23.230Z,42.27
2018-09-04T13:46:51.223Z,40.93
2018-09-04T13:49:19.279Z,39.65
2018-09-04T13:51:47.278Z,40.30
2018-09-04T13:54:15.316Z,41.67
2018-09-04T13:56:43.408Z,43.23
2018-09-04T13:59:11.466Z,42.17
2018-09-04T14:01:39.449Z,40.70
2018-09-04T14:04:07.514Z,40.52
2018-09-04T14:06:36.010Z,41.21
2018-09-04T14:09:05.424Z,40.30
2018-09-04T14:11:33.453Z,39.45
2018-09-04T14:14:01.755Z,40.98
2018-09-04T14:16:29.686Z,42.33
2018-09-04T14:18:57.701Z,40.84
2018-09-04T14:21:25.722Z,39.06
2018-09-04T14:23:54.113Z,40.67
2018-09-04T14:26:22.220Z,41.25
2018-09-04T14:29:06.422Z,41.79
2018-09-04T14:31:18.429Z,40.33
2018-09-04T14:33:53.282Z,40.82
2018-09-04T14:36:21.553Z,39.39
2018-09-04T14:38:49.524Z,40.23
2018-09-04T14:41:17.533Z,40.91
2018-09-04T14:43:45.556Z,40.78
2018-09-04T14:46:13.604Z,40.96
2018-09-04T14:48:41.645Z,40.41
2018-09-04T14:51:09.685Z,41.07
2018-09-04T14:53:37.687Z,39.13
2018-09-04T14:56:05.743Z,39.53
2018-09-04T14:58:33.787Z,38.14
2018-09-04T15:01:01.834Z,36.94
2018-09-04T15:03:29.887Z,36.48
2018-09-04T15:05:57.926Z,39.03
2018-09-04T15:08:25.941Z,38.56
2018-09-04T15:10:54.028Z,39.40
2018-09-04T15:13:22.173Z,39.12
2018-09-04T15:15:50.281Z,40.34
2018-09-04T15:18:19.128Z,39.50
2018-09-04T15:20:47.300Z,38.68
2018-09-04T15:23:15.456Z,39.13
2018-09-04T15:25:43.496Z,39.41
2018-09-04T15:28:11.466Z,40.82
2018-09-04T15:30:39.453Z,40.54
2018-09-04T15:33:07.460Z,40.20
2018-09-04T15:35:35.485Z,40.49
2018-09-04T15:38:03.504Z,39.72
2018-09-04T15:40:31.521Z,40.12
2018-09-04T15:42:59.545Z,39.03
2018-09-04T15:45:27.580Z,40.29
2018-09-04T15:47:55.673Z,39.70
2018-09-04T15:50:23.837Z,40.09
2018-09-04T15:52:51.936Z,39.30
2018-09-04T15:55:19.960Z,39.04
2018-09-04T15:57:47.960Z,39.38
2018-09-04T16:00:16.039Z,40.64
2018-09-04T16:02:44.093Z,40.52
2018-09-04T16:05:12.165Z,39.49
2018-09-04T16:07:40.209Z,40.29
2018-09-04T16:10:08.416Z,40.55
2018-09-04T16:12:36.497Z,41.44
2018-09-04T16:15:04.671Z,41.23
2018-09-04T16:17:32.837Z,42.40
2018-09-04T16:20:01.218Z,41.25
2018-09-04T16:22:29.504Z,40.91
2018-09-04T16:24:57.740Z,42.31
2018-09-04T16:27:25.797Z,42.64
2018-09-04T16:29:53.880Z,42.45
2018-09-04T16:32:21.925Z,41.12
2018-09-04T16:34:50.033Z,42.25
2018-09-04T16:37:18.010Z,42.33
2018-09-04T16:39:46.058Z,41.96
2018-09-04T16:42:14.085Z,41.33
2018-09-04T16:44:42.073Z,41.13
2018-09-04T16:47:10.094Z,41.90
2018-09-04T16:49:38.092Z,41.88
2018-09-04T16:52:06.569Z,41.78
2018-09-04T16:54:34.584Z,42.20
2018-09-04T16:57:02.589Z,42.80
2018-09-04T16:59:30.784Z,41.97
2018-09-04T17:01:58.792Z,42.57
2018-09-04T17:04:26.825Z,43.15
2018-09-04T17:06:54.846Z,43.32
2018-09-04T17:09:23.052Z,43.12
2018-09-04T17:11:51.248Z,43.54
2018-09-04T17:14:19.400Z,43.86
2018-09-04T17:16:47.430Z,44.70
2018-09-04T17:19:15.492Z,44.87
2018-09-04T17:21:43.541Z,44.91
2018-09-04T17:24:11.648Z,44.87
2018-09-04T17:26:39.696Z,43.86
2018-09-04T17:29:07.924Z,44.92
2018-09-04T17:31:36.017Z,44.29
2018-09-04T17:34:04.039Z,44.18
2018-09-04T17:36:32.159Z,43.93
2018-09-04T17:39:00.161Z,44.14
2018-09-04T17:41:28.600Z,44.99
2018-09-04T17:43:56.673Z,44.55
2018-09-04T17:46:24.717Z,45.26
2018-09-04T17:48:52.786Z,45.53
2018-09-04T17:51:20.810Z,45.90
2018-09-04T17:53:48.816Z,44.99
2018-09-04T17:56:16.873Z,45.72
2018-09-04T17:58:44.904Z,45.96
2018-09-04T18:01:12.952Z,46.87
2018-09-04T18:03:41.014Z,47.90
2018-09-04T18:06:09.070Z,47.50
2018-09-04T18:08:37.080Z,47.12
2018-09-04T18:11:05.229Z,47.47
2018-09-04T18:13:33.320Z,48.36
2018-09-04T18:16:01.330Z,48.55
2018-09-04T18:18:29.450Z,48.31
2018-09-04T18:20:57.479Z,47.92
2018-09-04T18:23:25.488Z,48.91
2018-09-04T18:25:53.501Z,48.81
2018-09-04T18:28:21.756Z,48.15
2018-09-04T18:30:50.734Z,48.33
2018-09-04T18:33:18.766Z,49.28
2018-09-04T18:35:46.781Z,48.90
2018-09-04T18:38:14.829Z,49.67
2018-09-04T18:40:42.865Z,50.59
2018-09-04T18:43:10.989Z,50.57
2018-09-04T18:45:50.320Z,51.07
2018-09-04T18:48:18.737Z,51.67
2018-09-04T18:50:46.840Z,52.36
2018-09-04T18:53:15.069Z,52.20
2018-09-04T18:55:43.144Z,53.85
2018-09-04T18:58:12.072Z,54.43
2018-09-04T19:00:40.550Z,55.23
2018-09-04T19:03:08.577Z,55.99
2018-09-04T19:05:36.716Z,56.62
2018-09-04T19:08:04.880Z,56.32
2018-09-04T19:10:33.243Z,57.01
2018-09-04T19:13:01.684Z,57.82
2018-09-04T19:15:30.731Z,58.79
2018-09-04T19:17:58.808Z,57.82
2018-09-04T19:20:26.822Z,59.10
2018-09-04T19:22:54.888Z,58.89
2018-09-04T19:25:23.278Z,57.55
2018-09-04T19:27:51.420Z,57.24
2018-09-04T19:30:19.525Z,58.27
2018-09-04T19:32:47.563Z,57.82
2018-09-04T19:35:15.568Z,57.14
2018-09-04T19:37:43.601Z,58.67
2018-09-04T19:40:11.745Z,58.14
2018-09-04T19:42:40.737Z,59.51
2018-09-04T19:45:09.137Z,60.23
2018-09-04T19:47:37.365Z,60.11
2018-09-04T19:50:06.803Z,60.88
2018-09-04T19:52:34.785Z,61.48
2018-09-04T19:55:02.893Z,61.60
2018-09-04T19:57:31.016Z,62.14
2018-09-04T19:59:59.101Z,62.58
2018-09-04T20:02:27.205Z,63.20
2018-09-04T20:04:55.245Z,62.66
2018-09-04T20:07:23.351Z,63.61
2018-09-04T20:09:51.350Z,64.69
2018-09-04T20:12:19.421Z,64.36
2018-09-04T20:14:47.453Z,64.29
2018-09-04T20:17:15.626Z,65.21
2018-09-04T20:19:43.969Z,65.34
2018-09-04T20:22:11.976Z,64.98
2018-09-04T20:24:40.129Z,65.81
2018-09-04T20:27:08.330Z,64.99
2018-09-04T20:29:36.431Z,65.59
2018-09-04T20:32:04.404Z,65.27
2018-09-04T20:34:32.430Z,65.76
2018-09-04T20:37:00.473Z,65.56
2018-09-04T20:39:28.651Z,66.15
2018-09-04T20:41:56.937Z,66.20
2018-09-04T20:44:24.975Z,65.85
2018-09-04T20:46:53.086Z,66.75
2018-09-04T20:49:21.112Z,66.18
2018-09-04T20:51:49.660Z,67.10
2018-09-04T20:54:17.838Z,66.94
2018-09-04T20:56:53.839Z,67.20
2018-09-04T20:59:33.382Z,68.17
2018-09-04T21:02:13.034Z,67.96
2018-09-04T21:04:52.393Z,68.23
2018-09-04T21:07:24.925Z,68.95
2018-09-04T21:09:58.392Z,69.55
2018-09-04T21:12:26.462Z,68.75
2018-09-04T21:14:54.547Z,69.37
2018-09-04T21:17:22.577Z,69.23
2018-09-04T21:19:50.600Z,70.49
2018-09-04T21:22:18.620Z,70.57
2018-09-04T21:24:46.918Z,69.94
2018-09-04T21:27:14.877Z,69.20
2018-09-04T21:29:43.013Z,70.04
2018-09-04T21:32:11.163Z,70.01
2018-09-04T21:34:39.328Z,70.66
2018-09-04T21:37:07.408Z,70.90
2018-09-04T21:39:35.447Z,71.26
2018-09-04T21:42:03.479Z,71.02
2018-09-04T21:44:31.546Z,71.89
2018-09-04T21:46:59.553Z,72.03
2018-09-04T21:49:27.573Z,71.48
2018-09-04T21:51:55.622Z,72.47
2018-09-04T21:54:23.630Z,72.28
2018-09-04T21:56:51.948Z,72.73
2018-09-04T21:59:19.913Z,73.55
2018-09-04T22:01:47.981Z,73.04
2018-09-04T22:04:16.057Z,73.76
2018-09-04T22:06:44.120Z,74.55
2018-09-04T22:09:12.250Z,74.42
2018-09-04T22:11:40.268Z,75.15
2018-09-04T22:14:08.331Z,74.50
2018-09-04T22:16:36.349Z,74.29
2018-09-04T22:19:04.684Z,75.26
2018-09-04T22:21:32.697Z,75.78
2018-09-04T22:24:00.804Z,76.66
2018-09-04T22:26:28.847Z,75.89
2018-09-04T22:28:56.844Z,76.20
2018-09-04T22:31:24.868Z,76.25
2018-09-04T22:33:52.900Z,75.84
2018-09-04T22:36:20.973Z,76.72
2018-09-04T22:38:49.050Z,75.89
2018-09-04T22:41:17.102Z,76.26
2018-09-04T22:43:45.143Z,76.62
2018-09-04T22:46:13.204Z,76.55
2018-09-04T22:48:41.230Z,77.02
2018-09-04T22:51:14.721Z,77.24
2018-09-04T22:53:42.723Z,77.52
2018-09-04T22:56:10.753Z,77.70
2018-09-04T22:58:38.776Z,77.62
2018-09-04T23:01:06.813Z,77.50
2018-09-04T23:03:34.845Z,78.36
2018-09-04T23:06:02.835Z,78.48
2018-09-04T23:08:30.902Z,77.87
2018-09-04T23:10:59.054Z,78.61
2018-09-04T23:13:27.066Z,79.19
2018-09-04T23:15:55.054Z,78.32
2018-09-04T23:18:23.081Z,78.18
2018-09-04T23:20:51.135Z,78.68
2018-09-04T23:23:19.128Z,79.33
2018-09-04T23:25:47.149Z,79.56
2018-09-04T23:28:15.164Z,79.90
2018-09-04T23:30:43.398Z,80.78
2018-09-04T23:33:11.422Z,80.21
2018-09-04T23:35:39.451Z,80.40
2018-09-04T23:38:07.456Z,81.66
2018-09-04T23:40:36.283Z,81.02
2018-09-04T23:43:04.502Z,80.62
2018-09-04T23:45:32.513Z,80.27
2018-09-04T23:48:00.548Z,80.69
2018-09-04T23:50:29.289Z,81.04
2018-09-04T23:52:57.313Z,79.99
2018-09-04T23:55:25.307Z,81.11
2018-09-04T23:57:53.424Z,80.72
